Portada
METAR-TAF:

METAR-TAF

Aeroports :

Ilo, Perú

latitud: 17-41-45S, longitud: 071-20-35W, altitud: 22 m

Observació

L'informe es va fer fa 11 hores i 2 minuts, a les 21:00 UTC
Vent 8 kt del Sud/Sud-Est
Temperatura 23°C
Humitat 69%
Pressió 1013 hPa
Visibilitat 10 km o més
sense núvols per sota de 1500 mi sense presència de cumulonimbus.

METAR: SPLO 142100Z 15008KT CAVOK 23/17 Q1013 RMK TX25.6 BIRD HAZARD RWY30 PP000

Hora: 03:02 (08:02 UTC)

Pronòstic

L'informe es va fer fa 15 hores i 2 minuts, a les 17:00 UTC
Pronòstic vàlid del 14 a les 18 UTC al 15 a les 18 UTC
Vent 7 kt del Sud/Sud-Est
Visibilitat 10 km o més
Núvols disperses a una alçada de 3500 ft

TAF: SPLO 141700Z 1418/1518 16007KT 9999 SCT035 TX25/1419Z TN17/1511Z

Observacions i pronòstics meteorològics de més de 4000 aeroports (METAR i TAF).

Les estacions disponibles són els punts grocs i vermells al mapa.

Posi el ratolí al punt desitjat per veure el nom de l'estació.

Feu clic per veure les observacions i els pronòstics meteorològics.

Per canviar el mapa: feu clic els botons verds amb una creu de color negre per apropar; al botó verd amb un guió per allunyar la imatge; o en les fletxes verdes per a mapes adjacents.


METAR-TAF: